Terminal Aerodrome Forecast
Issued by NWS Mt. Holly, NJ

Home | Current Version | Previous Version | Text Only | Print | Product List | Glossary On
Versions: 1 2 3 4 5 6 7 8 9 10 11 12 13 14 15 16 17 18 19 20 21 22 23 24 25 26 27 28 29 30 31 32 33 34 35 36 37 38
000
FTUS41 KPHI 240521
TAFABE
TAF
KABE 240521Z 2406/2506 10007KT 6SM -SHRA OVC015
      TEMPO 2407/2411 4SM SHRA BKN006 OVC015
     FM241100 VRB04KT 3SM BR OVC006
     FM241500 30005KT P6SM BKN025
     FM241700 32005KT P6SM BKN050
     FM242100 33004KT P6SM SCT250=

USA.gov is the U.S. government's official web portal to all federal, state and local government web resources and services.